CheckWX is a tool to help pilots better visualize weather data.  It is not intended as a substitute for an official pre-flight weather briefing.

11:39:58 UTC

RKJB TAF
Muan International Airport
South Korea
TAF RKJB 130500Z 1306/1412 33008KT 6000 -RA SCT010 BKN030 OVC090 TN08/1321Z TX09/1405Z BECMG 1311/1312 34015G25KT NSW TEMPO 1317/1322 -RA BECMG 1323/1324 36008KT BECMG 1408/1409 11006KT SCT030 BECMG 1411/1412 4200 BR

Nov-13@
06:00 UTC

Nov-13 @ 06:00 UTC

Nov-13@
11:00 UTC

Nov-13 @ 11:00 UTC

TAF RKJB 130500Z 1306/1412 33008KT 6000 -RA SCT010 BKN030 OVC090 TN08/1321Z TX09/1405Z

Expired

Wind
  • 330° at 8 KTS
Conditions
Light Rain
Cloud Levels
  • Scattered at 1,000' AGL
  • Broken at 3,000' AGL
  • Overcast at 9,000' AGL

Nov-13@
11:00 UTC

Nov-13 @ 11:00 UTC

Nov-13@
23:00 UTC

Nov-13 @ 23:00 UTC

BECMG 1311/1312 34015G25KT NSW

Becoming

Becoming Conditions expected by Wed, Nov 13, 2019 @ 12:00 UTC

Wind
  • 340° at 15 KTS
  • {Gusting to 25 KTS
Conditions
No significant weather
Cloud Levels
  • Scattered at 1,000' AGL
  • Broken at 3,000' AGL
  • Overcast at 9,000' AGL

Nov-13@
17:00 UTC

Nov-13 @ 17:00 UTC

Nov-13@
22:00 UTC

Nov-13 @ 22:00 UTC

TEMPO 1317/1322 -RA

Temporary

Temporary Changes expected for less than half the time period

Conditions
Light Rain

Nov-13@
23:00 UTC

Nov-13 @ 23:00 UTC

Nov-14@
08:00 UTC

Nov-14 @ 08:00 UTC

BECMG 1323/1324 36008KT

Becoming

Becoming Conditions expected by Thu, Nov 14, 2019 @ 00:00 UTC

Wind
  • 360° at 8 KTS
Conditions
No significant weather
Cloud Levels
  • Scattered at 1,000' AGL
  • Broken at 3,000' AGL
  • Overcast at 9,000' AGL

Nov-14@
08:00 UTC

Nov-14 @ 08:00 UTC

Nov-14@
11:00 UTC

Nov-14 @ 11:00 UTC

BECMG 1408/1409 11006KT SCT030

Becoming

Becoming Conditions expected by Thu, Nov 14, 2019 @ 09:00 UTC

Wind
  • 110° at 6 KTS
Conditions
No significant weather
Cloud Levels
  • Scattered at 3,000' AGL

Nov-14@
11:00 UTC

Nov-14 @ 11:00 UTC

Nov-14@
12:00 UTC

Nov-14 @ 12:00 UTC

BECMG 1411/1412 4200 BR

Becoming

Becoming Conditions expected by Thu, Nov 14, 2019 @ 12:00 UTC

Wind
  • 110° at 6 KTS
Conditions
Mist
Cloud Levels
  • Scattered at 3,000' AGL